Time;durP1;ratioP1;P1;durP2;ratioP2;P2;SDS_P1;SDS_P2;PMS_P1;PMS_P2;Temp;Humidity;BMP_temperature;BMP_pressure;BME280_temperature;BME280_humidity;BME280_pressure;Samples;Min_cycle;Max_cycle;Signal;HPM_P1;HPM_P2
2022/05/08 00:02:23;;;;;;;24.23;8.32;;;;;;;8.23;100.00;101155.97;5034828;28;20151;-87
2022/05/08 00:04:52;;;;;;;25.58;8.25;;;;;;;8.11;100.00;101161.38;5034647;28;20079;-86
2022/05/08 00:07:19;;;;;;;21.77;8.63;;;;;;;8.14;100.00;101167.56;5036027;28;20021;-86
2022/05/08 00:09:46;;;;;;;21.38;8.07;;;;;;;8.10;100.00;101157.84;5033873;28;20017;-87
2022/05/08 00:12:12;;;;;;;22.77;8.10;;;;;;;7.99;100.00;101157.03;5034543;28;20028;-88
2022/05/08 00:14:38;;;;;;;24.77;8.05;;;;;;;8.04;100.00;101165.88;5036150;28;20105;-87
2022/05/08 00:17:04;;;;;;;21.50;7.43;;;;;;;8.07;100.00;101160.50;5036160;28;20053;-84
2022/05/08 00:19:30;;;;;;;19.60;7.53;;;;;;;8.02;100.00;101156.97;5036203;28;20088;-86
2022/05/08 00:21:55;;;;;;;15.73;7.57;;;;;;;7.96;100.00;101165.00;5051233;28;20018;-85
2022/05/08 00:24:20;;;;;;;19.67;7.35;;;;;;;7.94;100.00;101159.69;5036228;28;20087;-85
2022/05/08 00:26:46;;;;;;;23.17;7.32;;;;;;;7.90;100.00;101164.16;5051782;28;20048;-85
2022/05/08 00:29:12;;;;;;;19.25;6.53;;;;;;;7.89;100.00;101162.38;5051161;28;20469;-85
2022/05/08 00:31:38;;;;;;;23.98;7.50;;;;;;;7.80;100.00;101167.75;5051030;28;20441;-84
2022/05/08 00:34:03;;;;;;;17.35;7.00;;;;;;;7.84;100.00;101164.16;5035029;28;20482;-85
2022/05/08 00:36:28;;;;;;;22.67;6.68;;;;;;;7.75;100.00;101162.44;5034461;28;20021;-83
2022/05/08 00:38:55;;;;;;;22.48;6.57;;;;;;;7.63;100.00;101168.66;5034059;28;20044;-84
2022/05/08 00:41:20;;;;;;;21.38;6.68;;;;;;;7.45;100.00;101169.59;5034467;28;20108;-86
2022/05/08 00:43:46;;;;;;;19.55;6.65;;;;;;;7.44;100.00;101171.41;5034669;28;20119;-85
2022/05/08 00:46:13;;;;;;;21.52;5.97;;;;;;;7.48;100.00;101170.50;5050809;28;20036;-84
2022/05/08 00:48:40;;;;;;;24.55;5.80;;;;;;;7.38;100.00;101171.41;5034125;28;20022;-86
2022/05/08 00:51:13;;;;;;;19.35;5.40;;;;;;;7.33;100.00;101173.19;5050357;28;20406;-85
2022/05/08 00:53:41;;;;;;;21.23;6.03;;;;;;;7.26;100.00;101175.88;5033968;28;20029;-86
2022/05/08 00:56:09;;;;;;;26.77;6.00;;;;;;;7.29;100.00;101172.34;5034028;28;20032;-85
2022/05/08 00:58:37;;;;;;;19.45;5.65;;;;;;;7.27;100.00;101168.78;5035717;28;20021;-87
2022/05/08 01:01:03;;;;;;;28.85;5.93;;;;;;;7.26;100.00;101173.22;5066045;22;22045;-81
2022/05/08 01:03:28;;;;;;;18.15;5.45;;;;;;;7.26;100.00;101167.91;5041694;28;20060;-81
2022/05/08 01:05:55;;;;;;;15.95;5.72;;;;;;;7.22;100.00;101168.78;5041761;28;20025;-82
2022/05/08 01:08:21;;;;;;;29.70;6.15;;;;;;;7.23;100.00;101162.59;5042014;28;20021;-82
2022/05/08 01:10:47;;;;;;;22.38;5.75;;;;;;;7.17;100.00;101170.56;5041569;28;20031;-82
2022/05/08 01:13:12;;;;;;;20.85;5.82;;;;;;;7.19;100.00;101160.81;5025739;28;20409;-82
2022/05/08 01:15:46;;;;;;;19.83;5.72;;;;;;;7.14;100.00;101157.28;5043008;28;20029;-82
2022/05/08 01:18:12;;;;;;;;;;;;;;;7.10;100.00;101160.84;5042341;28;20033;-82
2022/05/08 01:20:39;;;;;;;15.45;5.68;;;;;;;7.10;100.00;101156.41;5042098;28;19948;-81
2022/05/08 01:23:05;;;;;;;18.13;5.47;;;;;;;7.04;100.00;101167.94;5043169;28;20037;-81
2022/05/08 01:25:33;;;;;;;25.23;6.07;;;;;;;7.03;100.00;101166.19;5027565;28;20124;-81
2022/05/08 01:27:59;;;;;;;21.10;6.13;;;;;;;6.93;100.00;101165.28;5029634;28;20036;-82
2022/05/08 01:30:25;;;;;;;17.00;5.95;;;;;;;6.95;100.00;101167.94;5041776;28;20088;-82
2022/05/08 01:32:50;;;;;;;17.02;5.65;;;;;;;6.84;100.00;101169.69;5021673;28;20064;-81
2022/05/08 01:35:16;;;;;;;23.42;6.28;;;;;;;6.74;100.00;101169.72;5039659;28;20406;-82
2022/05/08 01:37:41;;;;;;;25.77;6.43;;;;;;;6.73;100.00;101169.69;5020441;28;20028;-81
2022/05/08 01:40:07;;;;;;;25.20;6.03;;;;;;;6.67;100.00;101171.50;5038821;28;20052;-81
2022/05/08 01:42:32;;;;;;;24.05;6.68;;;;;;;6.54;100.00;101173.25;5037673;28;20029;-81
2022/05/08 01:44:58;;;;;;;19.70;6.20;;;;;;;6.67;100.00;101178.56;5038680;28;20029;-81
2022/05/08 01:50:07;;;;;;;22.30;6.50;;;;;;;6.66;100.00;101171.47;5039700;28;20036;-81
2022/05/08 01:52:32;;;;;;;19.05;6.43;;;;;;;6.67;100.00;101178.56;5038767;28;20033;-81
2022/05/08 01:54:58;;;;;;;22.15;6.35;;;;;;;6.75;100.00;101173.25;5038781;28;20041;-81
2022/05/08 01:57:23;;;;;;;23.25;5.97;;;;;;;6.66;100.00;101176.78;5038264;28;20021;-81
2022/05/08 01:59:48;;;;;;;21.15;6.07;;;;;;;6.53;100.00;101176.78;5038454;28;20025;-81
2022/05/08 02:02:13;;;;;;;25.15;6.30;;;;;;;6.53;100.00;101186.50;5038222;28;20025;-81
2022/05/08 02:04:40;;;;;;;21.50;6.00;;;;;;;6.48;100.00;101191.81;5038114;28;20153;-81
2022/05/08 02:07:05;;;;;;;26.27;6.22;;;;;;;6.53;100.00;101182.09;5020752;28;20551;-82
2022/05/08 02:09:31;;;;;;;25.10;5.75;;;;;;;6.54;100.00;101183.88;5037098;28;20068;-81
2022/05/08 02:11:57;;;;;;;22.25;6.00;;;;;;;6.51;100.00;101182.97;5038100;28;20018;-81
2022/05/08 02:14:22;;;;;;;22.95;5.78;;;;;;;6.53;100.00;101181.19;5037261;28;20478;-81
2022/05/08 02:16:47;;;;;;;27.55;6.97;;;;;;;6.51;100.00;101177.66;5020114;28;20032;-82
2022/05/08 02:19:12;;;;;;;20.17;6.00;;;;;;;6.46;100.00;101180.31;5019863;28;20028;-81
2022/05/08 02:21:38;;;;;;;20.23;5.72;;;;;;;6.36;100.00;101177.66;5019262;28;20017;-82
2022/05/08 02:24:03;;;;;;;20.38;5.95;;;;;;;6.35;100.00;101177.63;5036695;28;20390;-82
2022/05/08 02:26:28;;;;;;;19.77;6.00;;;;;;;6.30;100.00;101187.34;5037147;28;20089;-81
2022/05/08 02:28:54;;;;;;;27.00;5.80;;;;;;;6.21;100.00;101175.81;5037326;28;20103;-81
2022/05/08 02:31:19;;;;;;;23.27;6.13;;;;;;;6.12;100.00;101176.69;5036893;28;20108;-81
2022/05/08 02:33:44;;;;;;;21.80;6.45;;;;;;;6.22;100.00;101176.72;5019557;28;20120;-81
2022/05/08 02:36:10;;;;;;;19.02;6.10;;;;;;;6.26;100.00;101176.72;5020177;28;20034;-81
2022/05/08 02:38:37;;;;;;;21.30;5.88;;;;;;;6.20;100.00;101178.47;5037866;28;20032;-81
2022/05/08 02:41:02;;;;;;;23.60;5.80;;;;;;;6.24;100.00;101174.94;5038882;28;20018;-81
2022/05/08 02:43:27;;;;;;;25.77;6.45;;;;;;;6.27;100.00;101180.25;5038753;28;20044;-80
2022/05/08 02:45:53;;;;;;;25.20;6.25;;;;;;;6.20;100.00;101178.47;5038980;28;20022;-81
2022/05/08 02:48:18;;;;;;;17.95;5.63;;;;;;;6.21;100.00;101185.56;5037216;28;20033;-81
2022/05/08 02:50:43;;;;;;;20.52;6.18;;;;;;;6.31;100.00;101187.38;5037812;28;20022;-81
2022/05/08 02:53:09;;;;;;;20.20;6.05;;;;;;;6.24;100.00;101189.09;5020639;28;20040;-81
2022/05/08 02:58:33;;;;;;;21.02;6.10;;;;;;;6.19;100.00;101189.97;5038376;28;20080;-81
2022/05/08 03:01:01;;;;;;;22.38;6.45;;;;;;;6.22;100.00;101192.63;5020743;28;20048;-82
2022/05/08 03:03:26;;;;;;;23.60;6.10;;;;;;;6.03;100.00;101192.56;5020477;28;20021;-81
2022/05/08 03:05:52;;;;;;;20.42;6.00;;;;;;;6.06;100.00;101189.88;5038532;28;20082;-81
2022/05/08 03:08:18;;;;;;;20.10;5.95;;;;;;;6.07;100.00;101182.84;5019894;28;20025;-81
2022/05/08 03:13:36;;;;;;;21.95;5.93;;;;;;;6.05;100.00;101180.19;5036576;28;20175;-82
2022/05/08 03:16:06;;;;;;;21.50;6.32;;;;;;;6.00;100.00;101181.94;5036297;28;20171;-82
2022/05/08 03:18:32;;;;;;;23.17;6.78;;;;;;;5.90;100.00;101184.53;5037203;28;20025;-82
2022/05/08 03:20:58;;;;;;;21.92;6.30;;;;;;;5.73;100.00;101189.78;5036451;28;20045;-82
2022/05/08 03:23:23;;;;;;;23.58;6.30;;;;;;;5.82;100.00;101196.88;5018965;28;20437;-82
2022/05/08 03:25:49;;;;;;;26.55;6.03;;;;;;;5.68;100.00;101194.16;5036779;28;20021;-82
2022/05/08 03:28:16;;;;;;;24.23;6.35;;;;;;;5.77;100.00;101195.97;5019141;28;20021;-82
2022/05/08 03:30:42;;;;;;;20.38;5.80;;;;;;;5.74;100.00;101191.56;5018674;28;20029;-82
2022/05/08 03:33:09;;;;;;;24.42;6.13;;;;;;;5.70;100.00;101195.94;5035451;28;20036;-83
2022/05/08 03:35:35;;;;;;;24.77;6.82;;;;;;;5.64;100.00;101203.88;5035746;28;20036;-83
2022/05/08 03:38:00;;;;;;;20.83;5.90;;;;;;;5.60;100.00;101194.13;5017935;28;20025;-82
2022/05/08 03:40:26;;;;;;;22.58;6.20;;;;;;;5.54;100.00;101194.97;5019693;28;20053;-82
2022/05/08 03:42:53;;;;;;;27.38;6.93;;;;;;;5.51;100.00;101194.06;5036241;28;20037;-82
2022/05/08 03:45:18;;;;;;;18.33;6.40;;;;;;;5.56;100.00;101195.00;5022086;28;20386;-82
2022/05/08 03:47:44;;;;;;;20.05;6.28;;;;;;;5.57;100.00;101194.09;5022191;28;20022;-82
2022/05/08 03:50:09;;;;;;;25.38;6.65;;;;;;;5.54;100.00;101194.09;5022460;28;20040;-82
2022/05/08 03:52:34;;;;;;;20.50;6.43;;;;;;;5.55;100.00;101195.84;5040094;28;20032;-82
2022/05/08 03:55:00;;;;;;;23.27;6.43;;;;;;;5.44;100.00;101195.78;5021455;28;20113;-83
2022/05/08 03:57:26;;;;;;;17.83;5.85;;;;;;;5.47;100.00;101194.06;5021336;28;20032;-83
2022/05/08 03:59:52;;;;;;;22.10;6.72;;;;;;;5.45;100.00;101195.81;5039115;28;20021;-81
2022/05/08 04:02:17;;;;;;;26.95;6.68;;;;;;;5.39;100.00;101200.16;5020529;28;20033;-82
2022/05/08 04:04:42;;;;;;;25.15;7.00;;;;;;;5.41;100.00;101198.44;5021278;28;20029;-81
2022/05/08 04:07:07;;;;;;;20.75;6.22;;;;;;;5.46;100.00;101196.72;5038320;28;20027;-81
2022/05/08 04:09:32;;;;;;;20.38;6.65;;;;;;;5.45;100.00;101197.56;5021037;28;20025;-81
2022/05/08 04:11:58;;;;;;;24.90;7.20;;;;;;;5.38;100.00;101190.47;5038765;28;20029;-82
2022/05/08 04:14:23;;;;;;;25.95;7.07;;;;;;;5.34;100.00;101190.44;5039173;28;20029;-82
2022/05/08 04:16:49;;;;;;;20.20;7.28;;;;;;;5.39;100.00;101195.75;5023251;28;20022;-82
2022/05/08 04:19:15;;;;;;;23.13;7.18;;;;;;;5.40;100.00;101191.34;5041804;28;20045;-81
2022/05/08 04:21:41;;;;;;;19.48;7.00;;;;;;;5.38;100.00;101188.72;5022686;28;20498;-82
2022/05/08 04:24:18;;;;;;;22.33;6.88;;;;;;;5.40;100.00;101194.00;5040085;28;20025;-82
2022/05/08 04:26:47;;;;;;;22.98;7.78;;;;;;;5.51;100.00;101189.66;5022706;28;20021;-82
2022/05/08 04:29:13;;;;;;;23.13;7.57;;;;;;;5.42;100.00;101189.59;5041325;28;20029;-82
2022/05/08 04:31:38;;;;;;;20.02;8.07;;;;;;;5.48;100.00;101190.53;5022067;28;20028;-81
2022/05/08 04:34:04;;;;;;;23.20;7.68;;;;;;;5.47;100.00;101187.88;5021632;28;20041;-81
2022/05/08 04:36:30;;;;;;;23.17;8.32;;;;;;;5.50;100.00;101203.78;5023974;28;20065;-81
2022/05/08 04:38:55;;;;;;;21.08;7.65;;;;;;;5.55;100.00;101196.75;5023173;28;20025;-82
2022/05/08 04:41:21;;;;;;;28.17;7.97;;;;;;;5.56;100.00;101195.00;5039967;28;20021;-83
2022/05/08 04:43:46;;;;;;;26.33;8.10;;;;;;;5.58;100.00;101198.53;5039185;28;20032;-81
2022/05/08 04:46:12;;;;;;;27.30;8.52;;;;;;;5.53;100.00;101200.25;5019869;28;20091;-82
2022/05/08 04:48:38;;;;;;;28.05;8.45;;;;;;;5.51;100.00;101200.28;5020074;28;20021;-81
2022/05/08 04:51:04;;;;;;;27.50;8.32;;;;;;;5.61;100.00;101203.84;5038598;28;20379;-82
2022/05/08 04:53:33;;;;;;;31.98;8.40;;;;;;;5.64;100.00;101205.63;5038643;28;20028;-81
2022/05/08 04:55:58;;;;;;;28.67;9.35;;;;;;;5.73;100.00;101210.06;5038706;28;20104;-80
2022/05/08 04:58:23;;;;;;;25.73;9.18;;;;;;;5.77;100.00;101207.44;5020902;28;20072;-81
2022/05/08 05:00:49;;;;;;;33.75;9.27;;;;;;;5.88;100.00;101212.81;5039187;28;20025;-81
2022/05/08 05:03:14;;;;;;;22.73;7.90;;;;;;;5.93;100.00;101205.75;5039951;28;20502;-80
2022/05/08 05:05:39;;;;;;;26.58;8.65;;;;;;;5.99;100.00;101209.31;5021864;28;20060;-81
2022/05/08 05:08:06;;;;;;;23.05;8.18;;;;;;;6.03;100.00;101213.78;5038292;28;20462;-81
2022/05/08 05:10:31;;;;;;;24.77;8.50;;;;;;;6.04;100.00;101212.88;5038347;28;20403;-81
2022/05/08 05:12:57;;;;;;;25.70;7.93;;;;;;;6.00;100.00;101213.75;5019504;28;20029;-82
2022/05/08 05:15:24;;;;;;;22.00;7.15;;;;;;;6.04;100.00;101223.47;5019579;28;20022;-80
2022/05/08 05:17:53;;;;;;;24.05;7.93;;;;;;;6.10;100.00;101223.56;5037146;28;20482;-82
2022/05/08 05:20:18;;;;;;;20.77;6.70;;;;;;;6.10;100.00;101226.19;5036302;28;20072;-82
2022/05/08 05:22:43;;;;;;;25.05;6.93;;;;;;;6.16;100.00;101235.06;5017980;28;20029;-82
2022/05/08 05:25:09;;;;;;;24.25;7.28;;;;;;;6.21;100.00;101235.97;5035714;28;20078;-83
2022/05/08 05:27:34;;;;;;;23.83;7.05;;;;;;;6.29;100.00;101236.84;5019649;28;20096;-82
2022/05/08 05:30:01;;;;;;;22.75;6.18;;;;;;;6.32;100.00;101239.53;5036537;28;20025;-82
2022/05/08 05:32:27;;;;;;;17.05;6.10;;;;;;;6.22;100.00;101240.38;5036417;28;20427;-81
2022/05/08 05:34:52;;;;;;;21.35;6.13;;;;;;;6.25;100.00;101243.03;5036448;28;20612;-82
2022/05/08 05:37:17;;;;;;;18.88;6.13;;;;;;;6.40;100.00;101244.84;5018646;28;20402;-82
2022/05/08 05:39:42;;;;;;;21.10;5.35;;;;;;;6.39;100.00;101252.81;5036646;28;20367;-81
2022/05/08 05:42:08;;;;;;;17.55;4.80;;;;;;;6.50;100.00;101259.03;5037889;28;20108;-82
2022/05/08 05:44:34;;;;;;;17.25;4.70;;;;;;;6.58;100.00;101262.59;5037464;28;20060;-82
2022/05/08 05:49:43;;;;;;;;;;;;;;;6.71;100.00;101254.66;5038112;28;20060;-81
2022/05/08 05:52:08;;;;;;;12.33;3.67;;;;;;;6.85;100.00;101256.44;5037584;28;20293;-82
2022/05/08 05:54:34;;;;;;;16.48;4.47;;;;;;;6.83;100.00;101259.06;5020880;28;20273;-81
2022/05/08 05:56:59;;;;;;;13.15;3.90;;;;;;;7.00;100.00;101264.44;5019964;28;20026;-82
2022/05/08 05:59:24;;;;;;;12.73;3.78;;;;;;;7.01;100.00;101267.97;5037908;28;20104;-82
2022/05/08 06:01:50;;;;;;;15.93;3.22;;;;;;;7.06;100.00;101263.53;5037489;28;20026;-82
2022/05/08 06:04:15;;;;;;;13.38;3.30;;;;;;;7.21;100.00;101264.44;5019617;28;20036;-81
2022/05/08 06:06:40;;;;;;;13.50;3.40;;;;;;;7.17;100.00;101267.94;5036365;28;20025;-80
2022/05/08 06:09:07;;;;;;;14.88;3.28;;;;;;;7.20;100.00;101263.53;5036912;28;20040;-81
2022/05/08 06:11:32;;;;;;;13.38;2.95;;;;;;;7.37;100.00;101276.81;5037640;28;20108;-80
2022/05/08 06:13:57;;;;;;;11.98;3.17;;;;;;;7.46;100.00;101270.59;5037301;28;20053;-82
2022/05/08 06:16:23;;;;;;;12.70;3.35;;;;;;;7.52;100.00;101284.78;5038247;28;20021;-82
2022/05/08 06:18:48;;;;;;;11.13;3.00;;;;;;;7.54;100.00;101283.88;5020215;28;20117;-82
2022/05/08 06:21:13;;;;;;;12.75;2.90;;;;;;;7.56;100.00;101289.19;5037765;28;20445;-81
2022/05/08 06:23:38;;;;;;;14.38;3.05;;;;;;;7.60;100.00;101293.63;5037182;28;20116;-81
2022/05/08 06:26:04;;;;;;;11.52;2.85;;;;;;;7.45;100.00;101294.50;5037168;28;20033;-82
2022/05/08 06:28:30;;;;;;;16.95;3.17;;;;;;;7.48;100.00;101300.72;5038137;28;20053;-82
2022/05/08 06:30:55;;;;;;;9.90;3.03;;;;;;;7.60;100.00;101302.47;5019417;28;20401;-81
2022/05/08 06:33:20;;;;;;;15.68;3.15;;;;;;;7.66;100.00;101306.91;5037218;28;20491;-81
2022/05/08 06:35:46;;;;;;;13.38;3.30;;;;;;;7.67;100.00;101308.69;5019159;28;20052;-81
2022/05/08 06:38:12;;;;;;;10.23;3.00;;;;;;;7.75;100.00;101318.41;5037090;28;20104;-81
2022/05/08 06:40:38;;;;;;;12.63;2.75;;;;;;;7.79;100.00;101310.44;5037467;28;20013;-82
2022/05/08 06:43:03;;;;;;;13.20;3.10;;;;;;;7.72;100.00;101311.34;5036865;28;20390;-82
2022/05/08 06:45:29;;;;;;;12.85;2.65;;;;;;;7.77;100.00;101311.31;5036598;28;20022;-82
2022/05/08 06:47:54;;;;;;;17.85;3.20;;;;;;;7.83;100.00;101308.66;5037034;28;20029;-82
2022/05/08 06:50:20;;;;;;;9.88;2.50;;;;;;;7.89;100.00;101313.06;5037923;28;20030;-82
2022/05/08 06:52:45;;;;;;;11.93;3.20;;;;;;;7.99;100.00;101312.16;5039553;28;20036;-82
2022/05/08 06:55:11;;;;;;;12.00;2.47;;;;;;;7.89;100.00;101305.97;5018135;28;20032;-80
2022/05/08 06:57:36;;;;;;;13.88;2.92;;;;;;;7.93;100.00;101307.75;5039507;28;20025;-79
2022/05/08 07:02:48;;;;;;;12.60;3.15;;;;;;;8.00;100.00;101308.59;5055993;22;20045;-86
2022/05/08 07:05:13;;;;;;;14.38;2.83;;;;;;;7.96;100.00;101312.19;5048257;28;20029;-86
2022/05/08 07:07:38;;;;;;;9.27;3.10;;;;;;;8.02;100.00;101311.25;5031723;28;20505;-83
2022/05/08 07:10:04;;;;;;;11.40;3.17;;;;;;;8.19;100.00;101319.22;5048195;28;20029;-84
2022/05/08 07:12:30;;;;;;;9.07;2.78;;;;;;;8.18;100.00;101312.09;5032191;28;20478;-83
2022/05/08 07:14:56;;;;;;;13.05;3.28;;;;;;;8.14;100.00;101305.88;5031372;28;20026;-86
2022/05/08 07:17:23;;;;;;;14.05;3.25;;;;;;;8.18;100.00;101311.22;5031470;28;20076;-82
2022/05/08 07:19:49;;;;;;;12.05;2.78;;;;;;;8.22;100.00;101323.63;5034253;28;20025;-85
2022/05/08 07:22:17;;;;;;;10.60;3.13;;;;;;;8.19;100.00;101320.97;5035258;28;20501;-85
2022/05/08 07:24:43;;;;;;;11.38;2.40;;;;;;;8.22;100.00;101319.16;5037192;28;20032;-83
2022/05/08 07:27:11;;;;;;;13.52;2.80;;;;;;;8.12;100.00;101328.06;5036767;28;20025;-82
2022/05/08 07:29:45;;;;;;;20.25;3.03;;;;;;;8.22;100.00;101319.16;5036087;28;20474;-81
2022/05/08 07:32:14;;;;;;;14.60;3.17;;;;;;;8.20;100.00;101317.41;5035779;28;20021;-83
2022/05/08 07:37:23;;;;;;;12.75;2.97;;;;;;;8.41;100.00;101320.88;5036858;28;20078;-84
2022/05/08 07:39:49;;;;;;;10.38;3.10;;;;;;;8.61;100.00;101318.16;5034828;28;20093;-84
2022/05/08 07:42:14;;;;;;;16.60;3.53;;;;;;;8.56;100.00;101320.81;5035374;28;20474;-86
2022/05/08 07:44:40;;;;;;;14.30;3.55;;;;;;;8.79;100.00;101319.81;5035856;28;20021;-83
2022/05/08 07:47:05;;;;;;;11.90;3.13;;;;;;;8.69;100.00;101318.09;5036093;28;20095;-85
2022/05/08 07:49:30;;;;;;;15.00;3.00;;;;;;;8.85;100.00;101326.00;5034965;28;20108;-83
2022/05/08 07:51:56;;;;;;;14.88;3.38;;;;;;;8.80;100.00;101329.59;5034943;28;20446;-83
2022/05/08 07:54:25;;;;;;;13.80;3.00;;;;;;;8.91;100.00;101326.00;5034612;28;20029;-86
2022/05/08 07:56:51;;;;;;;10.80;2.97;;;;;;;8.77;100.00;101329.59;5036186;28;20422;-85
2022/05/08 07:59:16;;;;;;;8.35;2.97;;;;;;;9.08;100.00;101333.84;5034548;28;20514;-86
2022/05/08 08:01:42;;;;;;;11.15;3.00;;;;;;;8.94;100.00;101331.31;5035910;28;20026;-84
2022/05/08 08:04:09;;;;;;;7.95;3.05;;;;;;;9.03;100.00;101322.34;5036106;28;20032;-85
2022/05/08 08:06:35;;;;;;;13.07;2.83;;;;;;;9.23;100.00;101324.88;5035011;28;20036;-86
2022/05/08 08:09:00;;;;;;;8.60;2.80;;;;;;;9.31;100.00;101323.91;5034539;28;20045;-86
2022/05/08 08:11:26;;;;;;;17.73;3.63;;;;;;;9.40;100.00;101321.19;5034250;28;20021;-85
2022/05/08 08:13:51;;;;;;;7.70;3.20;;;;;;;9.31;100.00;101323.91;5034818;28;20140;-86
2022/05/08 08:16:17;;;;;;;11.90;3.45;;;;;;;9.55;100.00;101329.94;5035642;28;20021;-85
2022/05/08 08:18:44;;;;;;;11.55;3.10;;;;;;;9.67;100.00;101335.16;5034931;28;20385;-84
2022/05/08 08:21:14;;;;;;;12.13;3.50;;;;;;;9.89;100.00;101337.63;5033525;28;20034;-85
2022/05/08 08:23:41;;;;;;;14.27;3.58;;;;;;;9.85;100.00;101338.53;5035823;28;20328;-85
2022/05/08 08:26:09;;;;;;;13.05;3.33;;;;;;;9.78;100.00;101342.19;5033991;28;20024;-86
2022/05/08 08:28:34;;;;;;;12.02;3.15;;;;;;;9.63;100.00;101338.78;5034520;28;20486;-84
2022/05/08 08:31:00;;;;;;;12.35;3.53;;;;;;;9.60;100.00;101339.69;5033574;28;20076;-86
2022/05/08 08:33:26;;;;;;;12.48;3.55;;;;;;;9.75;100.00;101342.19;5033976;28;20021;-84
2022/05/08 08:35:52;;;;;;;12.48;3.88;;;;;;;9.50;100.00;101341.53;5035814;28;20025;-84
2022/05/08 08:38:18;;;;;;;15.82;3.78;;;;;;;9.60;100.00;101336.13;5034514;28;20095;-85
2022/05/08 08:40:48;;;;;;;13.75;3.78;;;;;;;9.79;100.00;101343.97;5034199;28;20104;-86
2022/05/08 08:43:17;;;;;;;16.52;4.15;;;;;;;9.91;100.00;101343.84;5036357;28;20029;-86
2022/05/08 08:48:29;;;;;;;11.60;3.65;;;;;;;10.08;99.12;101350.75;5035880;28;20517;-84
2022/05/08 08:51:00;;;;;;;12.82;3.33;;;;;;;10.10;100.00;101343.63;5034348;28;20037;-86
2022/05/08 08:53:26;;;;;;;11.07;3.45;;;;;;;10.06;93.63;101348.13;5033713;28;20041;-87
2022/05/08 08:55:52;;;;;;;13.57;3.50;;;;;;;10.20;90.31;101351.53;5033622;28;20025;-86
2022/05/08 08:58:18;;;;;;;16.90;3.97;;;;;;;10.37;94.40;101356.66;5034976;28;20596;-86
2022/05/08 09:00:49;;;;;;;17.73;3.83;;;;;;;10.39;94.39;101350.41;5033652;28;20017;-87
2022/05/08 09:03:33;;;;;;;10.63;3.33;;;;;;;10.47;93.83;101353.00;5035536;28;20041;-87
2022/05/08 09:06:02;;;;;;;11.65;3.83;;;;;;;10.63;95.28;101351.94;5034193;28;20112;-86
2022/05/08 09:08:29;;;;;;;13.38;3.45;;;;;;;10.82;90.64;101348.09;5033073;28;20029;-85
2022/05/08 09:10:57;;;;;;;6.38;3.00;;;;;;;10.77;88.87;101352.63;5034541;28;20471;-86
2022/05/08 09:13:26;;;;;;;14.05;3.78;;;;;;;10.90;92.21;101345.31;5034364;28;20021;-86
2022/05/08 09:16:01;;;;;;;12.20;3.72;;;;;;;11.16;91.85;101352.06;5033036;28;20032;-86
2022/05/08 09:18:26;;;;;;;8.45;3.42;;;;;;;11.58;91.34;101352.31;5035171;28;20473;-87
2022/05/08 09:20:55;;;;;;;13.02;3.67;;;;;;;11.28;92.58;101352.81;5033430;28;20026;-86
2022/05/08 09:23:22;;;;;;;12.15;3.53;;;;;;;11.49;93.90;101354.22;5033407;28;20482;-86
2022/05/08 09:25:54;;;;;;;11.05;3.45;;;;;;;11.53;90.20;101355.06;5035095;28;20406;-86
2022/05/08 09:28:28;;;;;;;9.70;3.22;;;;;;;11.47;88.20;101353.38;5033769;28;20057;-86
2022/05/08 09:31:05;;;;;;;14.95;3.60;;;;;;;11.53;89.80;101356.84;5033294;28;20030;-87
2022/05/08 09:33:58;;;;;;;13.18;3.47;;;;;;;11.92;84.33;101357.06;5033511;28;20021;-85
2022/05/08 09:36:24;;;;;;;14.65;3.70;;;;;;;11.61;87.58;101357.63;5031923;28;20033;-87
2022/05/08 09:39:01;;;;;;;9.93;3.38;;;;;;;11.58;87.79;101352.31;5032834;28;20393;-85
2022/05/08 09:41:30;;;;;;;13.65;3.50;;;;;;;11.58;86.73;101357.66;5033591;28;20079;-88
2022/05/08 09:44:15;;;;;;;9.52;3.13;;;;;;;11.60;85.81;101351.38;5033302;28;20025;-87
2022/05/08 09:46:45;;;;;;;15.40;3.88;;;;;;;11.51;81.69;101348.88;5032793;28;20118;-87
2022/05/08 09:49:18;;;;;;;12.52;3.38;;;;;;;12.01;81.79;101352.47;5032812;28;20018;-87
2022/05/08 09:51:45;;;;;;;;;;;;;;;11.99;83.02;101354.25;5035244;28;20029;-86
2022/05/08 09:54:11;;;;;;;7.95;2.90;;;;;;;11.99;80.79;101352.47;5033348;28;20011;-86
2022/05/08 09:56:36;;;;;;;12.05;3.40;;;;;;;12.26;81.07;101354.69;5033609;28;20116;-88
2022/05/08 09:59:07;;;;;;;10.70;3.60;;;;;;;12.41;80.91;101353.50;5034060;28;20113;-88
2022/05/08 10:01:36;;;;;;;12.68;3.63;;;;;;;12.36;81.68;101350.03;5033829;28;20044;-86
2022/05/08 10:04:03;;;;;;;9.02;3.00;;;;;;;12.67;79.83;101343.13;5034211;28;20033;-86
2022/05/08 10:06:32;;;;;;;7.97;3.30;;;;;;;13.10;75.53;101349.31;5032284;28;20491;-87
2022/05/08 10:13:53;;;;;;;11.98;3.60;;;;;;;13.38;79.29;101353.13;5033553;28;20434;-87
2022/05/08 10:14:30;;;;;;;9.30;3.42;;;;;;;13.34;75.33;101354.13;5033928;28;20115;-87
2022/05/08 10:17:04;;;;;;;10.35;3.28;;;;;;;13.40;77.32;101340.56;5032031;28;20052;-88
2022/05/08 10:19:32;;;;;;;8.68;3.90;;;;;;;13.71;73.47;101353.22;5032426;28;20033;-87
2022/05/08 10:22:05;;;;;;;11.13;3.33;;;;;;;13.80;67.67;101352.09;5032632;28;20017;-88
2022/05/08 10:24:35;;;;;;;14.20;4.07;;;;;;;12.73;75.48;101340.34;5032391;28;20032;-87
2022/05/08 10:27:16;;;;;;;10.02;3.70;;;;;;;13.64;71.59;101343.56;5032669;28;20478;-87
2022/05/08 10:29:48;;;;;;;12.52;3.63;;;;;;;13.51;72.54;101334.91;5033380;28;20488;-86
2022/05/08 10:32:33;;;;;;;10.15;4.20;;;;;;;13.41;75.81;101342.31;5036752;28;20034;-87
2022/05/08 10:35:09;;;;;;;10.15;4.75;;;;;;;13.67;75.60;101350.66;5035578;28;20036;-86
2022/05/08 10:37:35;;;;;;;13.05;4.55;;;;;;;14.02;71.29;101346.13;5033725;28;20028;-87
2022/05/08 10:40:21;;;;;;;11.63;4.25;;;;;;;13.91;70.16;101340.19;5032233;28;20080;-87
2022/05/08 10:42:47;;;;;;;11.25;4.30;;;;;;;14.27;69.26;101345.47;5030962;28;20033;-87
2022/05/08 10:45:39;;;;;;;13.38;4.00;;;;;;;14.14;69.19;101344.94;5032856;28;20120;-87
2022/05/08 10:48:30;;;;;;;9.18;3.70;;;;;;;14.61;73.55;101340.88;5032726;28;20072;-87
2022/05/08 10:50:57;;;;;;;10.90;4.13;;;;;;;14.89;67.77;101335.63;5034116;28;20026;-86
2022/05/08 10:53:27;;;;;;;9.43;4.10;;;;;;;14.80;66.43;101337.63;5034069;28;20083;-88
2022/05/08 10:56:09;;;;;;;13.35;3.70;;;;;;;14.77;63.86;101343.09;5036673;28;20075;-90
2022/05/08 10:58:43;;;;;;;9.65;3.80;;;;;;;15.10;70.37;101339.41;5037435;28;20029;-87
2022/05/08 11:01:09;;;;;;;13.90;4.50;;;;;;;14.15;70.08;101333.25;5038507;28;20025;-87
2022/05/08 11:03:38;;;;;;;10.38;4.20;;;;;;;13.72;69.54;101333.50;5037483;28;20492;-86
2022/05/08 11:06:06;;;;;;;9.32;3.30;;;;;;;14.41;63.89;101339.66;5036961;28;20026;-87
2022/05/08 11:08:35;;;;;;;7.88;3.78;;;;;;;14.56;66.48;101341.97;5038254;28;20029;-87
2022/05/08 11:11:09;;;;;;;7.88;3.70;;;;;;;14.90;67.57;101340.06;5036260;28;20033;-88
2022/05/08 11:13:43;;;;;;;8.20;3.47;;;;;;;14.82;66.43;101337.56;5036863;28;20033;-89
2022/05/08 11:16:11;;;;;;;11.18;3.97;;;;;;;14.81;63.80;101339.41;5036577;28;20040;-89
2022/05/08 11:18:37;;;;;;;8.82;2.90;;;;;;;15.07;64.33;101335.03;5035752;28;20056;-88
2022/05/08 11:21:05;;;;;;;7.38;3.22;;;;;;;14.39;64.89;101343.31;5037563;28;20017;-90
2022/05/08 11:23:54;;;;;;;10.10;3.67;;;;;;;15.04;65.95;101347.69;5035825;28;20021;-89
2022/05/08 11:26:29;;;;;;;8.10;3.38;;;;;;;15.11;61.87;101341.19;5037779;28;20026;-89
2022/05/08 11:28:55;;;;;;;8.80;3.03;;;;;;;15.30;63.54;101333.41;5035813;28;20032;-89
2022/05/08 11:31:23;;;;;;;10.07;3.28;;;;;;;15.19;61.60;101330.19;5035389;28;20018;-89
2022/05/08 11:36:38;;;;;;;11.10;2.97;;;;;;;15.80;64.28;101330.81;5037179;28;20036;-89
2022/05/08 11:39:09;;;;;;;9.13;2.88;;;;;;;16.17;60.05;101336.72;5037593;28;20431;-87
2022/05/08 11:41:57;;;;;;;7.55;2.38;;;;;;;15.63;58.82;101321.53;5035489;28;20022;-89
2022/05/08 11:44:25;;;;;;;9.27;2.72;;;;;;;15.71;61.81;101334.72;5031569;28;20033;-88
2022/05/08 11:46:55;;;;;;;10.05;3.13;;;;;;;15.83;58.38;101322.63;5035045;28;20083;-88